Gregoria Perez de Denis, Argentina
Current Conditions -  °F | °C
As of 9:00 AM on Friday 19 Dec 2014 (Local Time) from SARE Reporting Station
Clear Clear  
Wind Chill: 28°   Ceiling: Unl
Heat Index: 29°   Visibility: 6mi
Dew Point: 19°   Wind: 8mph
Humidity: 58%   Direction: 90°E
Pressure: 29.8"   Gusts: NA
Location:  28.43°S, 61.58°W
Report Text: SARE 191200Z 09007KT CAVOK 28/19 Q1009
Loading
Personal Weather Stations






























Interactive Weather Map New forecast layout! Learn more

10-Day Weather Forecast

Advertisements
Track Severe Weather on mobile